createdAt,value
2024-01-20T00:00:37.178Z,33.46
2024-01-20T00:03:40.258Z,33.17
2024-01-20T00:06:45.524Z,33.55
2024-01-20T00:09:51.760Z,33.27
2024-01-20T00:12:55.748Z,33.10
2024-01-20T00:15:59.819Z,32.31
2024-01-20T00:19:03.391Z,32.07
2024-01-20T00:22:06.624Z,31.92
2024-01-20T00:25:11.708Z,31.96
2024-01-20T00:28:15.670Z,32.16
2024-01-20T00:31:18.898Z,31.87
2024-01-20T00:34:22.055Z,32.15
2024-01-20T00:37:25.386Z,32.39
2024-01-20T00:40:29.804Z,32.15
2024-01-20T00:43:32.774Z,31.72
2024-01-20T00:46:36.222Z,31.65
2024-01-20T00:49:39.284Z,31.81
2024-01-20T00:52:42.403Z,31.75
2024-01-20T00:55:47.165Z,31.67
2024-01-20T00:58:50.173Z,31.62
2024-01-20T01:01:53.277Z,31.94
2024-01-20T01:04:56.504Z,31.76
2024-01-20T01:07:59.783Z,31.55
2024-01-20T01:11:04.688Z,31.86
2024-01-20T01:14:07.865Z,31.49
2024-01-20T01:17:10.957Z,31.62
2024-01-20T01:20:14.491Z,31.81
2024-01-20T01:23:17.825Z,31.76
2024-01-20T01:26:22.584Z,31.86
2024-01-20T01:29:25.839Z,31.71
2024-01-20T01:32:29.079Z,31.51
2024-01-20T01:35:32.171Z,31.94
2024-01-20T01:38:35.186Z,31.73
2024-01-20T01:41:39.571Z,31.51
2024-01-20T01:44:42.570Z,31.97
2024-01-20T01:47:45.924Z,31.60
2024-01-20T01:50:50.630Z,31.53
2024-01-20T01:53:54.149Z,31.74
2024-01-20T01:57:01.244Z,31.44
2024-01-20T02:00:05.626Z,31.76
2024-01-20T02:03:09.518Z,31.43
2024-01-20T02:06:12.630Z,31.90
2024-01-20T02:09:15.853Z,31.52
2024-01-20T02:12:21.074Z,31.33
2024-01-20T02:15:25.075Z,31.31
2024-01-20T02:18:28.281Z,31.84
2024-01-20T02:21:31.389Z,31.74
2024-01-20T02:24:35.942Z,31.65
2024-01-20T02:27:39.419Z,31.23
2024-01-20T02:30:43.930Z,31.64
2024-01-20T02:33:47.076Z,31.52
2024-01-20T02:36:50.184Z,31.35
2024-01-20T02:39:55.052Z,31.34
2024-01-20T02:42:58.041Z,31.67
2024-01-20T02:46:01.107Z,31.56
2024-01-20T02:49:04.370Z,31.07
2024-01-20T02:52:07.934Z,31.51
2024-01-20T02:55:12.384Z,31.39
2024-01-20T02:58:15.406Z,31.16
2024-01-20T03:01:18.657Z,31.15
2024-01-20T03:04:21.975Z,31.39
2024-01-20T03:07:25.089Z,31.00
2024-01-20T03:10:29.575Z,31.11
2024-01-20T03:13:32.638Z,31.59
2024-01-20T03:16:35.595Z,31.06
2024-01-20T03:19:38.600Z,30.97
2024-01-20T03:22:41.593Z,31.06
2024-01-20T03:25:45.943Z,31.40
2024-01-20T03:28:48.966Z,31.43
2024-01-20T03:31:52.875Z,31.15
2024-01-20T03:34:55.947Z,31.29
2024-01-20T03:37:58.952Z,31.21
2024-01-20T03:41:03.602Z,31.29
2024-01-20T03:44:06.911Z,31.05
2024-01-20T03:47:10.008Z,30.87
2024-01-20T03:50:13.265Z,30.91
2024-01-20T03:53:16.327Z,31.29
2024-01-20T03:56:20.682Z,30.81
2024-01-20T03:59:23.715Z,30.72
2024-01-20T04:02:26.734Z,30.73
2024-01-20T04:05:29.716Z,31.06
2024-01-20T04:08:32.805Z,30.84
2024-01-20T04:11:37.294Z,30.97
2024-01-20T04:14:40.270Z,31.02
2024-01-20T04:17:43.349Z,30.74
2024-01-20T04:20:46.844Z,31.30
2024-01-20T04:23:49.951Z,31.19
2024-01-20T04:26:54.425Z,30.88
2024-01-20T04:29:57.597Z,30.84
2024-01-20T04:33:00.744Z,31.00
2024-01-20T04:36:04.010Z,30.48
2024-01-20T04:39:07.061Z,30.90
2024-01-20T04:42:11.515Z,31.35
2024-01-20T04:45:16.076Z,30.69
2024-01-20T04:48:21.181Z,30.84
2024-01-20T04:51:25.254Z,30.95
2024-01-20T04:54:28.662Z,30.97
2024-01-20T04:57:33.182Z,30.61
2024-01-20T05:00:37.270Z,30.78
2024-01-20T05:03:40.416Z,31.06
2024-01-20T05:06:46.725Z,30.47
2024-01-20T05:09:49.777Z,30.50
2024-01-20T05:12:54.223Z,30.47
2024-01-20T05:15:57.300Z,30.49
2024-01-20T05:19:00.565Z,30.97
2024-01-20T05:22:03.713Z,31.00
2024-01-20T05:25:07.557Z,30.98
2024-01-20T05:28:11.955Z,30.73
2024-01-20T05:31:14.926Z,30.51
2024-01-20T05:34:18.117Z,30.32
2024-01-20T05:37:21.152Z,30.91
2024-01-20T05:40:24.146Z,30.71
2024-01-20T05:43:28.508Z,30.90
2024-01-20T05:46:31.570Z,30.80
2024-01-20T05:49:34.812Z,30.90
2024-01-20T05:52:37.871Z,30.51
2024-01-20T05:55:40.893Z,30.34
2024-01-20T05:58:45.359Z,30.76
2024-01-20T06:01:51.753Z,30.81
2024-01-20T06:04:54.890Z,30.43
2024-01-20T06:07:57.859Z,30.49
2024-01-20T06:11:00.973Z,30.59
2024-01-20T06:14:05.497Z,30.83
2024-01-20T06:17:08.544Z,30.29
2024-01-20T06:20:12.204Z,30.69
2024-01-20T06:23:15.453Z,30.80
2024-01-20T06:26:18.813Z,30.78
2024-01-20T06:29:23.179Z,30.45
2024-01-20T06:32:26.183Z,30.40
2024-01-20T06:35:29.206Z,30.80
2024-01-20T06:38:32.414Z,30.57
2024-01-20T06:41:35.403Z,30.92
2024-01-20T06:44:39.827Z,30.31
2024-01-20T06:47:42.955Z,30.96
2024-01-20T06:50:46.023Z,30.31
2024-01-20T06:53:50.979Z,30.45
2024-01-20T06:56:54.069Z,30.45
2024-01-20T06:59:58.451Z,30.83
2024-01-20T07:03:01.586Z,30.53
2024-01-20T07:06:05.813Z,31.02
2024-01-20T07:09:08.906Z,30.79
2024-01-20T07:12:12.007Z,31.41
2024-01-20T07:15:16.639Z,31.40
2024-01-20T07:18:19.858Z,31.06
2024-01-20T07:21:22.953Z,31.26
2024-01-20T07:24:26.009Z,31.48
2024-01-20T07:27:29.033Z,31.44
2024-01-20T07:30:33.569Z,31.75
2024-01-20T07:33:36.794Z,31.33
2024-01-20T07:36:40.171Z,31.68
2024-01-20T07:39:43.225Z,31.82
2024-01-20T07:42:46.359Z,31.61
2024-01-20T07:45:55.178Z,31.87
2024-01-20T07:48:58.335Z,32.01
2024-01-20T07:52:01.410Z,31.52
2024-01-20T07:55:04.395Z,31.47
2024-01-20T07:58:07.366Z,31.51
2024-01-20T08:01:11.797Z,31.56
2024-01-20T08:04:14.898Z,31.43
2024-01-20T08:07:18.013Z,31.42
2024-01-20T08:10:21.362Z,31.61
2024-01-20T08:13:24.373Z,31.75
2024-01-20T08:16:30.038Z,32.03
2024-01-20T08:19:33.298Z,31.56
2024-01-20T08:22:36.636Z,31.46
2024-01-20T08:25:39.711Z,31.72
2024-01-20T08:28:42.838Z,31.98
2024-01-20T08:31:47.217Z,32.59
2024-01-20T08:34:50.445Z,32.09
2024-01-20T08:37:53.462Z,31.17
2024-01-20T08:40:56.656Z,31.04
2024-01-20T08:43:59.921Z,31.03
2024-01-20T08:47:04.340Z,31.34
2024-01-20T08:50:08.089Z,31.16
2024-01-20T08:53:11.120Z,31.55
2024-01-20T08:56:14.176Z,31.23
2024-01-20T08:59:17.888Z,31.24
2024-01-20T09:02:22.276Z,31.43
2024-01-20T09:05:25.322Z,31.45
2024-01-20T09:08:28.389Z,31.39
2024-01-20T09:11:31.468Z,31.45
2024-01-20T09:14:34.515Z,31.28
2024-01-20T09:17:38.900Z,31.52
2024-01-20T09:20:42.082Z,31.30
2024-01-20T09:23:45.257Z,31.73
2024-01-20T09:26:48.258Z,31.85
2024-01-20T09:29:51.254Z,31.73
2024-01-20T09:32:55.805Z,31.94
2024-01-20T09:35:58.866Z,29.27
2024-01-20T09:39:02.029Z,30.38
2024-01-20T09:42:05.896Z,29.73
2024-01-20T09:45:09.665Z,29.28
2024-01-20T09:48:14.249Z,27.47
2024-01-20T09:51:17.592Z,28.65
2024-01-20T09:54:22.531Z,27.93
2024-01-20T09:57:26.380Z,28.13
2024-01-20T10:00:30.310Z,29.01
2024-01-20T10:03:36.939Z,29.02
2024-01-20T10:06:40.348Z,29.11
2024-01-20T10:09:43.609Z,30.24
2024-01-20T10:12:50.735Z,30.21
2024-01-20T10:15:56.128Z,30.30
2024-01-20T10:19:00.602Z,30.60
2024-01-20T10:22:09.332Z,30.82
2024-01-20T10:25:19.175Z,31.04
2024-01-20T10:28:24.993Z,31.29
2024-01-20T10:31:28.156Z,31.65
2024-01-20T10:34:32.714Z,32.01
2024-01-20T10:37:39.140Z,31.89
2024-01-20T10:40:44.178Z,32.28
2024-01-20T10:43:55.165Z,32.50
2024-01-20T10:47:05.005Z,32.66
2024-01-20T10:50:10.638Z,32.94
2024-01-20T10:53:13.810Z,33.25
2024-01-20T10:56:18.485Z,33.49
2024-01-20T10:59:27.195Z,33.24
2024-01-20T11:02:30.469Z,33.90
2024-01-20T11:05:35.536Z,33.58
2024-01-20T11:08:38.667Z,34.31
2024-01-20T11:11:42.795Z,33.57
2024-01-20T11:14:52.998Z,33.20
2024-01-20T11:17:56.067Z,32.85
2024-01-20T11:21:02.677Z,32.67
2024-01-20T11:24:06.711Z,32.58
2024-01-20T11:27:11.409Z,32.81
2024-01-20T11:30:17.403Z,33.06
2024-01-20T11:33:21.110Z,33.22
2024-01-20T11:36:29.501Z,33.57
2024-01-20T11:39:32.616Z,33.25
2024-01-20T11:42:35.956Z,33.52
2024-01-20T11:45:39.157Z,33.73
2024-01-20T11:48:43.624Z,33.60
2024-01-20T11:51:48.262Z,32.74
2024-01-20T11:54:51.496Z,33.32
2024-01-20T11:57:56.535Z,31.78
2024-01-20T12:01:01.374Z,32.18
2024-01-20T12:04:04.974Z,31.99
2024-01-20T12:07:09.934Z,31.68
2024-01-20T12:10:13.804Z,31.91
2024-01-20T12:13:17.955Z,31.78
2024-01-20T12:16:21.714Z,32.02
2024-01-20T12:19:24.871Z,31.58
2024-01-20T12:22:29.391Z,31.75
2024-01-20T12:25:32.945Z,32.01
2024-01-20T12:28:36.574Z,32.27
2024-01-20T12:31:39.715Z,31.76
2024-01-20T12:34:42.893Z,32.02
2024-01-20T12:37:49.948Z,32.27
2024-01-20T12:40:53.173Z,32.29
2024-01-20T12:43:56.201Z,32.12
2024-01-20T12:46:59.218Z,32.20
2024-01-20T12:50:02.490Z,32.47
2024-01-20T12:53:07.917Z,32.07
2024-01-20T12:56:11.013Z,32.51
2024-01-20T12:59:14.117Z,32.51
2024-01-20T13:02:17.176Z,32.49
2024-01-20T13:05:20.368Z,32.38
2024-01-20T13:08:24.989Z,32.08
2024-01-20T13:11:29.481Z,31.94
2024-01-20T13:14:32.850Z,32.40
2024-01-20T13:17:36.904Z,32.35
2024-01-20T13:20:40.075Z,32.02
2024-01-20T13:23:47.710Z,32.64
2024-01-20T13:26:50.814Z,32.54
2024-01-20T13:29:53.821Z,32.10
2024-01-20T13:32:56.921Z,32.40
2024-01-20T13:35:59.993Z,32.15
2024-01-20T13:39:06.359Z,32.54
2024-01-20T13:42:11.086Z,32.39
2024-01-20T13:45:14.208Z,31.92
2024-01-20T13:48:17.363Z,32.46
2024-01-20T13:51:22.989Z,32.45
2024-01-20T13:54:27.691Z,32.59
2024-01-20T13:57:31.418Z,32.23
2024-01-20T14:00:34.956Z,32.79
2024-01-20T14:03:38.392Z,32.34
2024-01-20T14:06:41.845Z,32.83
2024-01-20T14:09:46.409Z,32.75
2024-01-20T14:12:49.594Z,32.34
2024-01-20T14:15:52.808Z,32.80
2024-01-20T14:18:56.813Z,32.80
2024-01-20T14:21:59.892Z,32.66
2024-01-20T14:25:06.462Z,32.90
2024-01-20T14:28:09.975Z,32.41
2024-01-20T14:31:14.040Z,32.53
2024-01-20T14:34:17.199Z,32.33
2024-01-20T14:37:20.578Z,32.41
2024-01-20T14:40:25.026Z,32.97
2024-01-20T14:43:28.184Z,32.97
2024-01-20T14:46:33.092Z,32.75
2024-01-20T14:49:36.370Z,32.51
2024-01-20T14:52:39.474Z,32.58
2024-01-20T14:55:43.851Z,32.76
2024-01-20T14:58:47.135Z,32.42
2024-01-20T15:01:50.245Z,32.32
2024-01-20T15:04:53.774Z,32.05
2024-01-20T15:07:57.233Z,32.19
2024-01-20T15:11:01.692Z,31.72
2024-01-20T15:14:08.863Z,31.65
2024-01-20T15:17:13.358Z,31.63
2024-01-20T15:20:17.412Z,31.83
2024-01-20T15:23:22.508Z,31.56
2024-01-20T15:26:26.917Z,31.17
2024-01-20T15:29:31.605Z,31.53
2024-01-20T15:32:34.667Z,31.53
2024-01-20T15:35:38.252Z,31.50
2024-01-20T15:38:41.327Z,32.11
2024-01-20T15:41:47.209Z,32.10
2024-01-20T15:44:50.509Z,32.01
2024-01-20T15:47:53.642Z,32.27
2024-01-20T15:50:56.744Z,32.36
2024-01-20T15:53:59.746Z,31.93
2024-01-20T15:57:04.890Z,32.23
2024-01-20T16:00:08.864Z,32.34
2024-01-20T16:03:11.947Z,31.48
2024-01-20T16:06:15.179Z,31.91
2024-01-20T16:09:18.596Z,32.16
2024-01-20T16:12:23.176Z,31.75
2024-01-20T16:15:26.238Z,31.78
2024-01-20T16:18:29.552Z,32.13
2024-01-20T16:21:33.317Z,32.20
2024-01-20T16:24:36.586Z,31.66
2024-01-20T16:27:41.128Z,31.76
2024-01-20T16:30:44.394Z,32.56
2024-01-20T16:33:47.863Z,32.10
2024-01-20T16:36:51.533Z,32.51
2024-01-20T16:39:58.909Z,32.76
2024-01-20T16:43:03.327Z,32.73
2024-01-20T16:46:06.493Z,32.71
2024-01-20T16:49:09.920Z,32.42
2024-01-20T16:52:13.821Z,32.64
2024-01-20T16:55:17.281Z,32.49
2024-01-20T16:58:21.707Z,32.59
2024-01-20T17:01:24.842Z,32.76
2024-01-20T17:04:28.281Z,32.25
2024-01-20T17:07:31.413Z,32.61
2024-01-20T17:10:34.912Z,32.65
2024-01-20T17:13:39.602Z,32.31
2024-01-20T17:16:42.659Z,32.31
2024-01-20T17:19:45.902Z,32.09
2024-01-20T17:22:49.026Z,32.49
2024-01-20T17:25:53.401Z,32.58
2024-01-20T17:28:58.324Z,32.17
2024-01-20T17:32:02.790Z,32.34
2024-01-20T17:35:06.404Z,32.03
2024-01-20T17:38:09.458Z,32.48
2024-01-20T17:41:12.589Z,32.29
2024-01-20T17:44:17.603Z,31.81
2024-01-20T17:47:20.722Z,31.24
2024-01-20T17:50:25.411Z,31.90
2024-01-20T17:53:34.814Z,31.55
2024-01-20T17:56:38.181Z,31.32
2024-01-20T17:59:42.637Z,31.88
2024-01-20T18:02:47.096Z,32.79
2024-01-20T18:05:50.341Z,31.97
2024-01-20T18:08:53.600Z,32.44
2024-01-20T18:11:56.642Z,32.20
2024-01-20T18:15:01.114Z,31.95
2024-01-20T18:18:04.330Z,31.89
2024-01-20T18:21:10.667Z,31.98
2024-01-20T18:24:14.353Z,32.17
2024-01-20T18:27:17.463Z,32.52
2024-01-20T18:30:21.900Z,32.42
2024-01-20T18:33:26.032Z,32.62
2024-01-20T18:36:29.137Z,32.56
2024-01-20T18:39:32.264Z,32.23
2024-01-20T18:42:35.315Z,32.25
2024-01-20T18:45:40.122Z,32.54
2024-01-20T18:48:43.354Z,32.59
2024-01-20T18:51:46.777Z,32.47
2024-01-20T18:54:49.836Z,32.59
2024-01-20T18:57:52.856Z,32.52
2024-01-20T19:00:57.385Z,32.50
2024-01-20T19:04:00.506Z,32.12
2024-01-20T19:07:03.592Z,32.54
2024-01-20T19:10:10.989Z,32.39
2024-01-20T19:13:14.146Z,32.68
2024-01-20T19:16:18.803Z,32.24
2024-01-20T19:19:21.924Z,31.88
2024-01-20T19:22:25.001Z,32.52
2024-01-20T19:25:28.222Z,32.51
2024-01-20T19:28:31.265Z,32.43
2024-01-20T19:31:36.495Z,32.61
2024-01-20T19:34:39.705Z,32.60
2024-01-20T19:37:42.829Z,32.28
2024-01-20T19:40:46.506Z,32.49
2024-01-20T19:43:49.586Z,32.22
2024-01-20T19:46:54.027Z,32.15
2024-01-20T19:49:57.069Z,32.58
2024-01-20T19:53:00.411Z,32.43
2024-01-20T19:56:05.737Z,32.15
2024-01-20T19:59:08.738Z,32.57
2024-01-20T20:02:13.214Z,32.46
2024-01-20T20:05:16.889Z,32.56
2024-01-20T20:08:24.023Z,32.41
2024-01-20T20:11:27.184Z,32.57
2024-01-20T20:14:30.169Z,32.14
2024-01-20T20:17:35.361Z,32.81
2024-01-20T20:20:38.514Z,32.72
2024-01-20T20:23:41.596Z,32.89
2024-01-20T20:26:44.798Z,32.76
2024-01-20T20:29:47.929Z,32.27
2024-01-20T20:32:52.656Z,32.02
2024-01-20T20:35:55.662Z,32.42
2024-01-20T20:38:58.908Z,32.25
2024-01-20T20:42:01.962Z,32.34
2024-01-20T20:45:05.959Z,31.96
2024-01-20T20:48:10.527Z,32.13
2024-01-20T20:51:13.600Z,31.89
2024-01-20T20:54:16.792Z,32.31
2024-01-20T20:57:20.228Z,31.79
2024-01-20T21:00:23.330Z,31.57
2024-01-20T21:03:27.892Z,31.67
2024-01-20T21:06:31.053Z,31.54
2024-01-20T21:09:34.131Z,31.71
2024-01-20T21:12:37.233Z,31.44
2024-01-20T21:15:41.963Z,31.77
2024-01-20T21:18:46.611Z,31.55
2024-01-20T21:21:49.836Z,31.63
2024-01-20T21:24:53.704Z,31.35
2024-01-20T21:27:56.828Z,31.36
2024-01-20T21:31:01.423Z,31.93
2024-01-20T21:34:05.983Z,31.33
2024-01-20T21:37:09.382Z,31.65
2024-01-20T21:40:13.322Z,31.11
2024-01-20T21:43:17.432Z,31.22
2024-01-20T21:46:25.993Z,31.46
2024-01-20T21:49:38.435Z,31.13
2024-01-20T21:52:42.084Z,31.54
2024-01-20T21:55:46.154Z,31.31
2024-01-20T21:58:50.312Z,31.53
2024-01-20T22:01:54.002Z,31.38
2024-01-20T22:04:59.256Z,31.50
2024-01-20T22:08:03.253Z,31.52
2024-01-20T22:11:07.714Z,31.06
2024-01-20T22:14:11.561Z,31.19
2024-01-20T22:17:18.197Z,31.36
2024-01-20T22:20:34.185Z,30.78
2024-01-20T22:23:42.521Z,30.98
2024-01-20T22:26:50.843Z,31.16
2024-01-20T22:30:02.116Z,31.33
2024-01-20T22:33:11.951Z,31.24
2024-01-20T22:36:18.625Z,31.26
2024-01-20T22:39:28.870Z,30.75
2024-01-20T22:42:36.202Z,30.83
2024-01-20T22:45:47.171Z,31.29
2024-01-20T22:48:56.498Z,30.66
2024-01-20T22:52:06.052Z,30.52
2024-01-20T22:55:14.467Z,30.29
2024-01-20T22:58:21.241Z,30.12
2024-01-20T23:01:28.389Z,30.01
2024-01-20T23:04:36.975Z,30.15
2024-01-20T23:07:47.222Z,30.21
2024-01-20T23:10:54.693Z,29.77
2024-01-20T23:14:03.392Z,30.06
2024-01-20T23:17:13.409Z,29.84
2024-01-20T23:20:27.647Z,29.85
2024-01-20T23:23:41.098Z,29.31
2024-01-20T23:26:51.623Z,29.24
2024-01-20T23:29:57.387Z,29.71
2024-01-20T23:33:08.430Z,29.30
2024-01-20T23:36:17.933Z,29.16
2024-01-20T23:39:31.738Z,29.07
2024-01-20T23:42:41.819Z,29.23
2024-01-20T23:45:51.440Z,29.31
2024-01-20T23:48:59.208Z,29.26
2024-01-20T23:52:09.334Z,29.04
2024-01-20T23:55:19.679Z,29.19
2024-01-20T23:58:29.379Z,28.84
